sensor_id;sensor_type;location;lat;lon;timestamp;pressure;altitude;pressure_sealevel;temperature;humidity
7182;BME280;3632;42.724;23.298;2023-05-25T00:00:09;95323.97;;;17.65;87.68
7182;BME280;3632;42.724;23.298;2023-05-25T00:02:37;95331.69;;;17.57;86.60
7182;BME280;3632;42.724;23.298;2023-05-25T00:05:04;95339.91;;;17.53;87.26
7182;BME280;3632;42.724;23.298;2023-05-25T00:07:31;95348.41;;;17.21;87.57
7182;BME280;3632;42.724;23.298;2023-05-25T00:09:58;95311.22;;;17.31;87.78
7182;BME280;3632;42.724;23.298;2023-05-25T00:12:25;95332.97;;;17.29;88.19
7182;BME280;3632;42.724;23.298;2023-05-25T00:14:51;95335.16;;;17.00;90.49
7182;BME280;3632;42.724;23.298;2023-05-25T00:17:19;95334.97;;;16.93;91.50
7182;BME280;3632;42.724;23.298;2023-05-25T00:19:46;95312.59;;;16.85;90.88
7182;BME280;3632;42.724;23.298;2023-05-25T00:22:13;95326.84;;;17.06;90.54
7182;BME280;3632;42.724;23.298;2023-05-25T00:24:40;95334.22;;;17.01;90.77
7182;BME280;3632;42.724;23.298;2023-05-25T00:27:07;95291.09;;;16.53;90.96
7182;BME280;3632;42.724;23.298;2023-05-25T00:29:34;95290.56;;;16.75;90.97
7182;BME280;3632;42.724;23.298;2023-05-25T00:32:01;95332.28;;;17.11;90.65
7182;BME280;3632;42.724;23.298;2023-05-25T00:34:29;95285.41;;;16.83;90.63
7182;BME280;3632;42.724;23.298;2023-05-25T00:36:55;95334.56;;;17.06;89.76
7182;BME280;3632;42.724;23.298;2023-05-25T00:39:22;95335.34;;;17.06;89.83
7182;BME280;3632;42.724;23.298;2023-05-25T00:41:49;95341.00;;;17.10;90.25
7182;BME280;3632;42.724;23.298;2023-05-25T00:44:15;95343.53;;;17.02;89.39
7182;BME280;3632;42.724;23.298;2023-05-25T00:46:47;95334.88;;;17.19;88.54
7182;BME280;3632;42.724;23.298;2023-05-25T00:49:14;95255.94;;;16.69;88.29
7182;BME280;3632;42.724;23.298;2023-05-25T00:51:44;95331.81;;;17.15;88.66
7182;BME280;3632;42.724;23.298;2023-05-25T00:54:12;95341.81;;;17.18;88.09
7182;BME280;3632;42.724;23.298;2023-05-25T00:56:43;95350.31;;;17.19;89.06
7182;BME280;3632;42.724;23.298;2023-05-25T00:59:15;95350.72;;;16.82;90.55
7182;BME280;3632;42.724;23.298;2023-05-25T01:01:44;95350.69;;;16.40;93.35
7182;BME280;3632;42.724;23.298;2023-05-25T01:04:14;95414.66;;;15.91;95.85
7182;BME280;3632;42.724;23.298;2023-05-25T01:06:45;95358.09;;;15.66;98.54
7182;BME280;3632;42.724;23.298;2023-05-25T01:09:15;95357.91;;;15.49;100.00
7182;BME280;3632;42.724;23.298;2023-05-25T01:11:45;95006.19;;;12.57;100.00
7182;BME280;3632;42.724;23.298;2023-05-25T01:14:18;95364.66;;;15.33;100.00
7182;BME280;3632;42.724;23.298;2023-05-25T01:16:46;95311.03;;;14.94;100.00
7182;BME280;3632;42.724;23.298;2023-05-25T01:19:13;95369.66;;;15.34;100.00
7182;BME280;3632;42.724;23.298;2023-05-25T01:21:43;95274.03;;;14.97;100.00
7182;BME280;3632;42.724;23.298;2023-05-25T01:24:16;95344.38;;;15.83;100.00
7182;BME280;3632;42.724;23.298;2023-05-25T01:26:51;95346.41;;;15.97;98.21
7182;BME280;3632;42.724;23.298;2023-05-25T01:29:20;95341.78;;;16.00;96.25
7182;BME280;3632;42.724;23.298;2023-05-25T01:31:49;95347.00;;;16.17;96.14
7182;BME280;3632;42.724;23.298;2023-05-25T01:34:18;95335.94;;;16.16;96.71
7182;BME280;3632;42.724;23.298;2023-05-25T01:36:48;95346.91;;;16.00;97.62
7182;BME280;3632;42.724;23.298;2023-05-25T01:39:14;95339.66;;;15.96;97.52
7182;BME280;3632;42.724;23.298;2023-05-25T01:41:41;95220.81;;;15.25;97.25
7182;BME280;3632;42.724;23.298;2023-05-25T01:44:08;95329.09;;;15.99;97.16
7182;BME280;3632;42.724;23.298;2023-05-25T01:46:36;95332.31;;;16.01;97.17
7182;BME280;3632;42.724;23.298;2023-05-25T01:49:11;95345.63;;;15.96;97.36
7182;BME280;3632;42.724;23.298;2023-05-25T01:51:52;95327.38;;;16.08;96.84
7182;BME280;3632;42.724;23.298;2023-05-25T01:54:27;95300.19;;;15.79;97.04
7182;BME280;3632;42.724;23.298;2023-05-25T01:56:56;95337.84;;;16.14;97.02
7182;BME280;3632;42.724;23.298;2023-05-25T01:59:26;95329.19;;;16.15;96.14
7182;BME280;3632;42.724;23.298;2023-05-25T02:01:54;95289.69;;;15.90;95.66
7182;BME280;3632;42.724;23.298;2023-05-25T02:04:21;95342.09;;;16.23;95.20
7182;BME280;3632;42.724;23.298;2023-05-25T02:06:51;95169.53;;;15.15;95.19
7182;BME280;3632;42.724;23.298;2023-05-25T02:09:18;95337.03;;;15.88;96.62
7182;BME280;3632;42.724;23.298;2023-05-25T02:11:44;95422.66;;;16.06;97.29
7182;BME280;3632;42.724;23.298;2023-05-25T02:14:11;95347.78;;;15.83;97.15
7182;BME280;3632;42.724;23.298;2023-05-25T02:16:38;95352.31;;;15.89;97.68
7182;BME280;3632;42.724;23.298;2023-05-25T02:19:05;95347.81;;;15.91;97.64
7182;BME280;3632;42.724;23.298;2023-05-25T02:21:31;95356.78;;;15.87;98.07
7182;BME280;3632;42.724;23.298;2023-05-25T02:24:02;95354.97;;;15.80;97.66
7182;BME280;3632;42.724;23.298;2023-05-25T02:26:29;94921.69;;;12.58;99.28
7182;BME280;3632;42.724;23.298;2023-05-25T02:28:55;95363.16;;;15.40;99.80
7182;BME280;3632;42.724;23.298;2023-05-25T02:31:22;95362.47;;;15.38;99.17
7182;BME280;3632;42.724;23.298;2023-05-25T02:33:49;95365.28;;;15.44;98.96
7182;BME280;3632;42.724;23.298;2023-05-25T02:36:15;95366.97;;;15.36;98.50
7182;BME280;3632;42.724;23.298;2023-05-25T02:38:42;95339.19;;;14.86;100.00
7182;BME280;3632;42.724;23.298;2023-05-25T02:41:10;95376.34;;;15.09;100.00
7182;BME280;3632;42.724;23.298;2023-05-25T02:43:37;95378.28;;;14.98;100.00
7182;BME280;3632;42.724;23.298;2023-05-25T02:46:04;95330.38;;;14.71;100.00
7182;BME280;3632;42.724;23.298;2023-05-25T02:48:30;95339.16;;;14.41;100.00
7182;BME280;3632;42.724;23.298;2023-05-25T02:50:57;95377.63;;;14.96;100.00
7182;BME280;3632;42.724;23.298;2023-05-25T02:53:24;94836.44;;;11.66;100.00
7182;BME280;3632;42.724;23.298;2023-05-25T02:55:50;95392.75;;;15.17;100.00
7182;BME280;3632;42.724;23.298;2023-05-25T02:58:19;95390.56;;;15.22;100.00
7182;BME280;3632;42.724;23.298;2023-05-25T03:00:46;95394.16;;;15.29;99.52
7182;BME280;3632;42.724;23.298;2023-05-25T03:03:13;95405.47;;;14.91;98.89
7182;BME280;3632;42.724;23.298;2023-05-25T03:05:40;95331.56;;;14.94;98.35
7182;BME280;3632;42.724;23.298;2023-05-25T03:08:06;95396.41;;;15.59;97.25
7182;BME280;3632;42.724;23.298;2023-05-25T03:10:33;95389.44;;;15.69;97.41
7182;BME280;3632;42.724;23.298;2023-05-25T03:13:00;95391.25;;;15.77;97.36
7182;BME280;3632;42.724;23.298;2023-05-25T03:15:28;95392.28;;;15.66;97.24
7182;BME280;3632;42.724;23.298;2023-05-25T03:17:55;95415.75;;;15.36;98.84
7182;BME280;3632;42.724;23.298;2023-05-25T03:20:25;95391.59;;;15.46;98.61
7182;BME280;3632;42.724;23.298;2023-05-25T03:22:52;95394.06;;;15.66;97.57
7182;BME280;3632;42.724;23.298;2023-05-25T03:25:18;95392.72;;;15.62;98.24
7182;BME280;3632;42.724;23.298;2023-05-25T03:27:45;94983.66;;;12.79;98.60
7182;BME280;3632;42.724;23.298;2023-05-25T03:30:12;95403.53;;;15.65;97.93
7182;BME280;3632;42.724;23.298;2023-05-25T03:32:40;95407.63;;;15.58;98.02
7182;BME280;3632;42.724;23.298;2023-05-25T03:35:08;95068.38;;;13.13;98.81
7182;BME280;3632;42.724;23.298;2023-05-25T03:37:34;95411.50;;;15.44;99.31
7182;BME280;3632;42.724;23.298;2023-05-25T03:40:01;95405.91;;;15.49;98.71
7182;BME280;3632;42.724;23.298;2023-05-25T03:42:29;95410.00;;;15.51;98.66
7182;BME280;3632;42.724;23.298;2023-05-25T03:44:55;95411.97;;;15.58;99.01
7182;BME280;3632;42.724;23.298;2023-05-25T03:47:22;95291.38;;;14.85;98.95
7182;BME280;3632;42.724;23.298;2023-05-25T03:49:50;95414.53;;;15.75;97.99
7182;BME280;3632;42.724;23.298;2023-05-25T03:52:17;95381.28;;;15.56;97.95
7182;BME280;3632;42.724;23.298;2023-05-25T03:54:43;95416.72;;;15.88;97.20
7182;BME280;3632;42.724;23.298;2023-05-25T03:57:10;95414.88;;;15.98;96.15
7182;BME280;3632;42.724;23.298;2023-05-25T03:59:37;95340.41;;;15.63;95.93
7182;BME280;3632;42.724;23.298;2023-05-25T04:02:04;95429.31;;;16.17;95.33
7182;BME280;3632;42.724;23.298;2023-05-25T04:04:30;95429.66;;;16.22;95.96
7182;BME280;3632;42.724;23.298;2023-05-25T04:06:59;95423.97;;;15.92;97.67
7182;BME280;3632;42.724;23.298;2023-05-25T04:09:25;95425.84;;;15.82;99.14
7182;BME280;3632;42.724;23.298;2023-05-25T04:11:52;95427.41;;;16.19;98.04
7182;BME280;3632;42.724;23.298;2023-05-25T04:14:19;95434.28;;;16.36;96.63
7182;BME280;3632;42.724;23.298;2023-05-25T04:16:46;95423.03;;;16.37;95.88
7182;BME280;3632;42.724;23.298;2023-05-25T04:19:12;95431.44;;;16.47;95.31
7182;BME280;3632;42.724;23.298;2023-05-25T04:21:39;95435.47;;;16.67;94.40
7182;BME280;3632;42.724;23.298;2023-05-25T04:24:07;95379.53;;;16.52;93.68
7182;BME280;3632;42.724;23.298;2023-05-25T04:26:34;95441.91;;;17.05;94.07
7182;BME280;3632;42.724;23.298;2023-05-25T04:29:03;95450.09;;;17.01;91.99
7182;BME280;3632;42.724;23.298;2023-05-25T04:31:31;95385.47;;;16.52;92.23
7182;BME280;3632;42.724;23.298;2023-05-25T04:33:58;95487.88;;;16.66;91.47
7182;BME280;3632;42.724;23.298;2023-05-25T04:36:26;95447.25;;;17.20;90.93
7182;BME280;3632;42.724;23.298;2023-05-25T04:38:54;95453.41;;;17.27;91.86
7182;BME280;3632;42.724;23.298;2023-05-25T04:41:22;95446.06;;;17.48;91.30
7182;BME280;3632;42.724;23.298;2023-05-25T04:43:50;95063.63;;;15.05;90.85
7182;BME280;3632;42.724;23.298;2023-05-25T04:46:18;95448.63;;;17.48;90.26
7182;BME280;3632;42.724;23.298;2023-05-25T04:48:45;95450.88;;;17.43;90.14
7182;BME280;3632;42.724;23.298;2023-05-25T04:51:11;95447.56;;;17.67;87.82
7182;BME280;3632;42.724;23.298;2023-05-25T04:53:38;95451.91;;;17.74;86.96
7182;BME280;3632;42.724;23.298;2023-05-25T04:56:05;95302.00;;;16.88;84.49
7182;BME280;3632;42.724;23.298;2023-05-25T04:58:33;95440.03;;;17.90;84.16
7182;BME280;3632;42.724;23.298;2023-05-25T05:01:00;95347.56;;;17.04;84.52
7182;BME280;3632;42.724;23.298;2023-05-25T05:03:27;95446.53;;;17.44;86.06
7182;BME280;3632;42.724;23.298;2023-05-25T05:05:54;95369.84;;;17.21;86.12
7182;BME280;3632;42.724;23.298;2023-05-25T05:08:21;95437.25;;;17.83;85.48
7182;BME280;3632;42.724;23.298;2023-05-25T05:10:48;95400.34;;;17.66;84.84
7182;BME280;3632;42.724;23.298;2023-05-25T05:13:14;95436.78;;;17.96;85.15
7182;BME280;3632;42.724;23.298;2023-05-25T05:15:43;95380.72;;;17.73;83.88
7182;BME280;3632;42.724;23.298;2023-05-25T05:18:09;95434.84;;;18.14;83.70
7182;BME280;3632;42.724;23.298;2023-05-25T05:20:38;95450.00;;;18.09;83.51
7182;BME280;3632;42.724;23.298;2023-05-25T05:23:05;95443.06;;;18.17;83.35
7182;BME280;3632;42.724;23.298;2023-05-25T05:25:32;95424.06;;;18.10;82.43
7182;BME280;3632;42.724;23.298;2023-05-25T05:27:59;95312.22;;;17.47;82.14
7182;BME280;3632;42.724;23.298;2023-05-25T05:30:25;95366.53;;;17.94;82.32
7182;BME280;3632;42.724;23.298;2023-05-25T05:32:53;95454.84;;;18.36;82.95
7182;BME280;3632;42.724;23.298;2023-05-25T05:35:21;95420.31;;;18.21;82.36
7182;BME280;3632;42.724;23.298;2023-05-25T05:37:47;95464.81;;;18.55;82.18
7182;BME280;3632;42.724;23.298;2023-05-25T05:40:14;95464.00;;;18.63;81.67
7182;BME280;3632;42.724;23.298;2023-05-25T05:42:41;95387.47;;;18.07;81.50
7182;BME280;3632;42.724;23.298;2023-05-25T05:45:08;95455.47;;;18.54;80.48
7182;BME280;3632;42.724;23.298;2023-05-25T05:47:35;95382.63;;;18.12;81.10
7182;BME280;3632;42.724;23.298;2023-05-25T05:50:04;95460.94;;;18.51;81.13
7182;BME280;3632;42.724;23.298;2023-05-25T05:52:31;95142.66;;;16.45;82.04
7182;BME280;3632;42.724;23.298;2023-05-25T05:54:58;95462.91;;;18.57;83.63
7182;BME280;3632;42.724;23.298;2023-05-25T05:57:25;95306.72;;;17.09;82.28
7182;BME280;3632;42.724;23.298;2023-05-25T05:59:52;95340.09;;;17.75;85.68
7182;BME280;3632;42.724;23.298;2023-05-25T06:02:19;95473.97;;;18.82;83.63
7182;BME280;3632;42.724;23.298;2023-05-25T06:04:46;95461.31;;;19.03;80.32
7182;BME280;3632;42.724;23.298;2023-05-25T06:07:14;95460.34;;;19.04;79.50
7182;BME280;3632;42.724;23.298;2023-05-25T06:09:41;95435.38;;;18.89;80.64
7182;BME280;3632;42.724;23.298;2023-05-25T06:12:08;95457.53;;;19.22;80.19
7182;BME280;3632;42.724;23.298;2023-05-25T06:14:35;95452.75;;;19.42;78.44
7182;BME280;3632;42.724;23.298;2023-05-25T06:17:01;95458.53;;;19.52;77.48
7182;BME280;3632;42.724;23.298;2023-05-25T06:19:28;95455.91;;;19.60;76.33
7182;BME280;3632;42.724;23.298;2023-05-25T06:21:55;95464.22;;;19.39;77.27
7182;BME280;3632;42.724;23.298;2023-05-25T06:24:23;95466.72;;;19.25;78.91
7182;BME280;3632;42.724;23.298;2023-05-25T06:26:49;95462.63;;;19.38;77.62
7182;BME280;3632;42.724;23.298;2023-05-25T06:29:16;95456.78;;;19.44;78.34
7182;BME280;3632;42.724;23.298;2023-05-25T06:31:43;95464.00;;;19.57;79.85
7182;BME280;3632;42.724;23.298;2023-05-25T06:34:10;95471.13;;;19.86;77.70
7182;BME280;3632;42.724;23.298;2023-05-25T06:36:36;95468.72;;;19.99;74.66
7182;BME280;3632;42.724;23.298;2023-05-25T06:39:03;95470.66;;;20.05;73.91
7182;BME280;3632;42.724;23.298;2023-05-25T06:41:31;95344.06;;;19.35;73.49
7182;BME280;3632;42.724;23.298;2023-05-25T06:43:58;95440.63;;;19.96;73.74
7182;BME280;3632;42.724;23.298;2023-05-25T06:46:25;95472.34;;;20.13;74.77
7182;BME280;3632;42.724;23.298;2023-05-25T06:48:51;95481.59;;;20.15;75.08
7182;BME280;3632;42.724;23.298;2023-05-25T06:51:18;95435.88;;;19.85;75.66
7182;BME280;3632;42.724;23.298;2023-05-25T06:53:45;95457.63;;;19.90;77.38
7182;BME280;3632;42.724;23.298;2023-05-25T06:56:12;95477.53;;;20.13;76.62
7182;BME280;3632;42.724;23.298;2023-05-25T06:58:40;95371.56;;;19.59;76.38
7182;BME280;3632;42.724;23.298;2023-05-25T07:01:06;95465.22;;;20.37;75.89
7182;BME280;3632;42.724;23.298;2023-05-25T07:03:33;95465.88;;;20.54;75.49
7182;BME280;3632;42.724;23.298;2023-05-25T07:06:00;95462.50;;;20.54;75.73
7182;BME280;3632;42.724;23.298;2023-05-25T07:08:27;95460.09;;;20.67;75.70
7182;BME280;3632;42.724;23.298;2023-05-25T07:10:53;95454.47;;;20.92;75.26
7182;BME280;3632;42.724;23.298;2023-05-25T07:13:20;95236.97;;;19.38;75.54
7182;BME280;3632;42.724;23.298;2023-05-25T07:15:48;95451.13;;;21.21;74.34
7182;BME280;3632;42.724;23.298;2023-05-25T07:18:16;95433.75;;;21.07;74.05
7182;BME280;3632;42.724;23.298;2023-05-25T07:20:43;95447.94;;;21.40;73.36
7182;BME280;3632;42.724;23.298;2023-05-25T07:23:10;95449.88;;;21.53;72.16
7182;BME280;3632;42.724;23.298;2023-05-25T07:25:37;95452.50;;;21.74;71.70
7182;BME280;3632;42.724;23.298;2023-05-25T07:28:04;95461.75;;;21.98;72.38
7182;BME280;3632;42.724;23.298;2023-05-25T07:30:31;95385.28;;;21.58;71.82
7182;BME280;3632;42.724;23.298;2023-05-25T07:32:59;95462.91;;;22.17;70.55
7182;BME280;3632;42.724;23.298;2023-05-25T07:35:26;95428.41;;;21.59;70.15
7182;BME280;3632;42.724;23.298;2023-05-25T07:37:56;95441.19;;;21.82;67.70
7182;BME280;3632;42.724;23.298;2023-05-25T07:40:23;95462.84;;;21.89;67.99
7182;BME280;3632;42.724;23.298;2023-05-25T07:42:50;95468.53;;;21.99;67.11
7182;BME280;3632;42.724;23.298;2023-05-25T07:45:17;95449.53;;;21.77;65.16
7182;BME280;3632;42.724;23.298;2023-05-25T07:47:43;95424.38;;;21.06;65.86
7182;BME280;3632;42.724;23.298;2023-05-25T07:50:12;95466.81;;;21.34;66.43
7182;BME280;3632;42.724;23.298;2023-05-25T07:52:38;95470.50;;;21.25;68.42
7182;BME280;3632;42.724;23.298;2023-05-25T07:55:06;95258.84;;;19.27;69.42
7182;BME280;3632;42.724;23.298;2023-05-25T07:57:42;95214.00;;;19.43;68.04
7182;BME280;3632;42.724;23.298;2023-05-25T08:00:09;95204.47;;;19.43;68.13
7182;BME280;3632;42.724;23.298;2023-05-25T08:02:36;95483.91;;;21.00;69.40
7182;BME280;3632;42.724;23.298;2023-05-25T08:05:03;95497.28;;;21.03;69.19
7182;BME280;3632;42.724;23.298;2023-05-25T08:07:33;95500.84;;;20.73;69.78
7182;BME280;3632;42.724;23.298;2023-05-25T08:10:00;95511.16;;;20.43;70.49
7182;BME280;3632;42.724;23.298;2023-05-25T08:12:27;95517.91;;;19.99;71.68
7182;BME280;3632;42.724;23.298;2023-05-25T08:14:55;95522.25;;;19.76;72.39
7182;BME280;3632;42.724;23.298;2023-05-25T08:17:21;95055.88;;;16.63;74.14
7182;BME280;3632;42.724;23.298;2023-05-25T08:19:48;95534.16;;;19.54;74.26
7182;BME280;3632;42.724;23.298;2023-05-25T08:22:15;95538.66;;;19.60;76.07
7182;BME280;3632;42.724;23.298;2023-05-25T08:24:43;95536.44;;;19.49;78.00
7182;BME280;3632;42.724;23.298;2023-05-25T08:27:10;95444.75;;;18.82;80.88
7182;BME280;3632;42.724;23.298;2023-05-25T08:29:36;95498.13;;;18.97;87.65
7182;BME280;3632;42.724;23.298;2023-05-25T08:32:03;95538.06;;;18.87;93.45
7182;BME280;3632;42.724;23.298;2023-05-25T08:34:30;95264.13;;;16.23;97.84
7182;BME280;3632;42.724;23.298;2023-05-25T08:36:57;95529.66;;;18.44;100.00
7182;BME280;3632;42.724;23.298;2023-05-25T08:39:24;95305.53;;;16.45;100.00
7182;BME280;3632;42.724;23.298;2023-05-25T08:41:52;95040.56;;;14.87;100.00
7182;BME280;3632;42.724;23.298;2023-05-25T08:44:20;95474.16;;;17.67;100.00
7182;BME280;3632;42.724;23.298;2023-05-25T08:46:47;95249.50;;;16.23;100.00
7182;BME280;3632;42.724;23.298;2023-05-25T08:49:14;95528.66;;;17.97;100.00
7182;BME280;3632;42.724;23.298;2023-05-25T08:51:44;95535.13;;;18.01;100.00
7182;BME280;3632;42.724;23.298;2023-05-25T08:54:13;95246.47;;;16.28;100.00
7182;BME280;3632;42.724;23.298;2023-05-25T08:56:48;95220.84;;;16.10;100.00
7182;BME280;3632;42.724;23.298;2023-05-25T08:59:27;95482.34;;;17.63;100.00
7182;BME280;3632;42.724;23.298;2023-05-25T09:02:03;95550.69;;;17.75;100.00
7182;BME280;3632;42.724;23.298;2023-05-25T09:04:33;95559.56;;;17.72;100.00
7182;BME280;3632;42.724;23.298;2023-05-25T09:07:00;95297.69;;;16.21;100.00
7182;BME280;3632;42.724;23.298;2023-05-25T09:09:27;95465.28;;;17.20;100.00
7182;BME280;3632;42.724;23.298;2023-05-25T09:11:55;95568.63;;;17.93;100.00
7182;BME280;3632;42.724;23.298;2023-05-25T09:14:24;95429.84;;;17.06;100.00
7182;BME280;3632;42.724;23.298;2023-05-25T09:16:51;95511.38;;;17.65;100.00
7182;BME280;3632;42.724;23.298;2023-05-25T09:19:18;95574.38;;;17.78;100.00
7182;BME280;3632;42.724;23.298;2023-05-25T09:21:45;95568.69;;;17.59;100.00
7182;BME280;3632;42.724;23.298;2023-05-25T09:24:12;95266.81;;;15.18;100.00
7182;BME280;3632;42.724;23.298;2023-05-25T09:26:39;95568.41;;;17.70;100.00
7182;BME280;3632;42.724;23.298;2023-05-25T09:29:09;95564.38;;;17.75;100.00
7182;BME280;3632;42.724;23.298;2023-05-25T09:31:39;95177.22;;;15.33;100.00
7182;BME280;3632;42.724;23.298;2023-05-25T09:34:10;95164.78;;;15.20;100.00
7182;BME280;3632;42.724;23.298;2023-05-25T09:36:37;95590.53;;;17.89;100.00
7182;BME280;3632;42.724;23.298;2023-05-25T09:39:07;95203.31;;;15.72;100.00
7182;BME280;3632;42.724;23.298;2023-05-25T09:44:19;95559.34;;;18.16;100.00
7182;BME280;3632;42.724;23.298;2023-05-25T09:46:46;95554.50;;;18.29;100.00
7182;BME280;3632;42.724;23.298;2023-05-25T09:49:13;95556.09;;;18.38;100.00
7182;BME280;3632;42.724;23.298;2023-05-25T09:51:40;95561.28;;;18.30;99.90
7182;BME280;3632;42.724;23.298;2023-05-25T09:54:08;95502.72;;;18.06;100.00
7182;BME280;3632;42.724;23.298;2023-05-25T09:56:35;95555.81;;;18.49;98.96
7182;BME280;3632;42.724;23.298;2023-05-25T09:59:02;95557.13;;;18.53;99.22
7182;BME280;3632;42.724;23.298;2023-05-25T10:01:33;95548.22;;;18.72;98.57
7182;BME280;3632;42.724;23.298;2023-05-25T10:04:00;95562.41;;;19.00;96.73
7182;BME280;3632;42.724;23.298;2023-05-25T10:06:27;95550.56;;;19.14;96.00
7182;BME280;3632;42.724;23.298;2023-05-25T10:08:56;95570.59;;;19.20;94.86
7182;BME280;3632;42.724;23.298;2023-05-25T10:11:24;95146.81;;;16.30;96.66
7182;BME280;3632;42.724;23.298;2023-05-25T10:13:52;95190.84;;;17.09;95.91
7182;BME280;3632;42.724;23.298;2023-05-25T10:16:24;95528.31;;;19.60;95.06
7182;BME280;3632;42.724;23.298;2023-05-25T10:18:58;95373.25;;;18.82;95.18
7182;BME280;3632;42.724;23.298;2023-05-25T10:21:30;95349.69;;;18.85;89.43
7182;BME280;3632;42.724;23.298;2023-05-25T10:24:01;95338.94;;;18.74;90.28
7182;BME280;3632;42.724;23.298;2023-05-25T10:26:33;95516.75;;;20.24;90.58
7182;BME280;3632;42.724;23.298;2023-05-25T10:29:02;95515.44;;;20.28;90.48
7182;BME280;3632;42.724;23.298;2023-05-25T10:31:30;95509.63;;;20.26;87.91
7182;BME280;3632;42.724;23.298;2023-05-25T10:34:00;95468.41;;;20.02;88.30
7182;BME280;3632;42.724;23.298;2023-05-25T10:36:27;95165.34;;;18.02;92.74
7182;BME280;3632;42.724;23.298;2023-05-25T10:38:55;95517.16;;;20.13;87.20
7182;BME280;3632;42.724;23.298;2023-05-25T10:41:23;95500.31;;;20.17;86.42
7182;BME280;3632;42.724;23.298;2023-05-25T10:43:50;95352.09;;;19.40;84.09
7182;BME280;3632;42.724;23.298;2023-05-25T10:46:20;95270.63;;;18.76;81.87
7182;BME280;3632;42.724;23.298;2023-05-25T10:48:48;95479.38;;;20.27;79.11
7182;BME280;3632;42.724;23.298;2023-05-25T10:51:19;95474.81;;;20.29;78.34
7182;BME280;3632;42.724;23.298;2023-05-25T10:53:47;95368.47;;;19.64;80.72
7182;BME280;3632;42.724;23.298;2023-05-25T10:56:23;95461.91;;;20.06;83.64
7182;BME280;3632;42.724;23.298;2023-05-25T10:58:51;95450.69;;;19.91;87.06
7182;BME280;3632;42.724;23.298;2023-05-25T11:01:18;95458.91;;;19.72;89.74
7182;BME280;3632;42.724;23.298;2023-05-25T11:03:55;95460.47;;;19.81;88.82
7182;BME280;3632;42.724;23.298;2023-05-25T11:09:28;95468.22;;;20.26;89.67
7182;BME280;3632;42.724;23.298;2023-05-25T11:12:03;95269.16;;;19.27;90.43
7182;BME280;3632;42.724;23.298;2023-05-25T11:14:32;95374.84;;;20.13;93.05
7182;BME280;3632;42.724;23.298;2023-05-25T11:17:05;95459.75;;;20.70;93.09
7182;BME280;3632;42.724;23.298;2023-05-25T11:19:38;95426.31;;;20.45;86.90
7182;BME280;3632;42.724;23.298;2023-05-25T11:22:13;95384.06;;;19.93;90.15
7182;BME280;3632;42.724;23.298;2023-05-25T11:24:41;95461.50;;;20.55;94.27
7182;BME280;3632;42.724;23.298;2023-05-25T11:27:10;95456.00;;;20.72;96.43
7182;BME280;3632;42.724;23.298;2023-05-25T11:29:37;95232.94;;;18.90;94.55
7182;BME280;3632;42.724;23.298;2023-05-25T11:32:11;95250.66;;;19.61;86.42
7182;BME280;3632;42.724;23.298;2023-05-25T11:34:40;94961.09;;;17.84;85.16
7182;BME280;3632;42.724;23.298;2023-05-25T11:37:14;95472.72;;;20.99;85.09
7182;BME280;3632;42.724;23.298;2023-05-25T11:39:45;95465.66;;;20.93;83.07
7182;BME280;3632;42.724;23.298;2023-05-25T11:42:14;95451.53;;;20.81;79.49
7182;BME280;3632;42.724;23.298;2023-05-25T11:44:40;95356.28;;;19.49;81.84
7182;BME280;3632;42.724;23.298;2023-05-25T11:47:09;95459.31;;;20.81;83.48
7182;BME280;3632;42.724;23.298;2023-05-25T11:49:38;95178.91;;;18.88;84.42
7182;BME280;3632;42.724;23.298;2023-05-25T11:52:09;95454.75;;;21.41;83.15
7182;BME280;3632;42.724;23.298;2023-05-25T11:54:37;95413.13;;;21.50;83.00
7182;BME280;3632;42.724;23.298;2023-05-25T11:57:13;95453.34;;;21.96;80.08
7182;BME280;3632;42.724;23.298;2023-05-25T11:59:46;95218.53;;;20.58;75.66
7182;BME280;3632;42.724;23.298;2023-05-25T12:02:13;95446.22;;;22.26;76.51
7182;BME280;3632;42.724;23.298;2023-05-25T12:04:40;95464.38;;;22.75;74.63
7182;BME280;3632;42.724;23.298;2023-05-25T12:07:07;95385.25;;;22.77;69.07
7182;BME280;3632;42.724;23.298;2023-05-25T12:09:34;95438.19;;;23.52;63.17
7182;BME280;3632;42.724;23.298;2023-05-25T12:12:03;95441.28;;;23.95;65.99
7182;BME280;3632;42.724;23.298;2023-05-25T12:14:31;95442.16;;;24.22;62.77
7182;BME280;3632;42.724;23.298;2023-05-25T12:17:00;95436.94;;;24.41;60.18
7182;BME280;3632;42.724;23.298;2023-05-25T12:19:27;95388.63;;;24.12;57.50
7182;BME280;3632;42.724;23.298;2023-05-25T12:21:54;95427.50;;;24.60;54.84
7182;BME280;3632;42.724;23.298;2023-05-25T12:24:21;95407.59;;;24.79;51.09
7182;BME280;3632;42.724;23.298;2023-05-25T12:26:48;95411.22;;;24.84;50.91
7182;BME280;3632;42.724;23.298;2023-05-25T12:29:17;95076.38;;;22.61;53.58
7182;BME280;3632;42.724;23.298;2023-05-25T12:31:44;95081.41;;;23.09;60.14
7182;BME280;3632;42.724;23.298;2023-05-25T12:34:12;95378.81;;;25.25;54.00
7182;BME280;3632;42.724;23.298;2023-05-25T12:36:44;95332.69;;;25.50;53.70
7182;BME280;3632;42.724;23.298;2023-05-25T12:39:14;95398.59;;;26.08;51.34
7182;BME280;3632;42.724;23.298;2023-05-25T12:41:43;95276.28;;;25.18;49.38
7182;BME280;3632;42.724;23.298;2023-05-25T12:44:22;95392.50;;;26.82;50.14
7182;BME280;3632;42.724;23.298;2023-05-25T12:46:51;95420.38;;;26.95;46.58
7182;BME280;3632;42.724;23.298;2023-05-25T12:49:24;95387.66;;;27.04;45.61
7182;BME280;3632;42.724;23.298;2023-05-25T12:51:53;95371.50;;;26.70;45.17
7182;BME280;3632;42.724;23.298;2023-05-25T12:54:36;95262.31;;;25.68;48.18
7182;BME280;3632;42.724;23.298;2023-05-25T12:57:06;95356.09;;;26.44;48.66
7182;BME280;3632;42.724;23.298;2023-05-25T12:59:35;95365.94;;;27.03;46.76
7182;BME280;3632;42.724;23.298;2023-05-25T13:02:04;95379.63;;;27.05;46.04
7182;BME280;3632;42.724;23.298;2023-05-25T13:04:30;95304.41;;;27.01;44.09
7182;BME280;3632;42.724;23.298;2023-05-25T13:06:57;95346.19;;;27.37;43.92
7182;BME280;3632;42.724;23.298;2023-05-25T13:09:25;95349.25;;;27.64;43.73
7182;BME280;3632;42.724;23.298;2023-05-25T13:11:52;95038.53;;;25.57;46.05
7182;BME280;3632;42.724;23.298;2023-05-25T13:14:20;95211.50;;;26.62;45.30
7182;BME280;3632;42.724;23.298;2023-05-25T13:16:48;95332.00;;;27.75;46.73
7182;BME280;3632;42.724;23.298;2023-05-25T13:19:15;95337.06;;;28.11;43.63